createdAt,value
2018-08-18T00:00:15.416Z,94725.53
2018-08-18T00:02:44.223Z,94731.59
2018-08-18T00:05:13.733Z,94731.92
2018-08-18T00:07:42.520Z,94731.66
2018-08-18T00:10:12.750Z,94729.98
2018-08-18T00:12:41.473Z,94727.91
2018-08-18T00:15:10.698Z,94726.45
2018-08-18T00:17:39.897Z,94728.43
2018-08-18T00:20:12.189Z,94737.23
2018-08-18T00:22:41.007Z,94740.66
2018-08-18T00:25:09.861Z,94737.39
2018-08-18T00:27:38.613Z,94736.57
2018-08-18T00:30:14.180Z,94735.35
2018-08-18T00:32:42.946Z,94737.09
2018-08-18T00:35:11.679Z,94741.12
2018-08-18T00:37:40.466Z,94740.23
2018-08-18T00:40:10.373Z,94742.20
2018-08-18T00:42:39.300Z,94739.96
2018-08-18T00:45:09.724Z,94731.56
2018-08-18T00:47:38.720Z,94737.26
2018-08-18T00:50:08.110Z,94735.08
2018-08-18T00:52:36.907Z,94732.09
2018-08-18T00:55:05.703Z,94731.16
2018-08-18T00:57:34.512Z,94727.63
2018-08-18T01:00:04.442Z,94721.05
2018-08-18T01:02:33.165Z,94714.98
2018-08-18T01:05:02.737Z,94730.62
2018-08-18T01:07:32.352Z,94736.40
2018-08-18T01:10:01.437Z,94736.72
2018-08-18T01:12:30.357Z,94737.61
2018-08-18T01:14:59.048Z,94735.31
2018-08-18T01:17:27.867Z,94735.33
2018-08-18T01:19:57.950Z,94734.50
2018-08-18T01:22:26.734Z,94733.11
2018-08-18T01:24:55.507Z,94729.84
2018-08-18T01:27:24.255Z,94728.72
2018-08-18T01:30:04.367Z,94725.95
2018-08-18T01:32:33.751Z,94719.97
2018-08-18T01:35:02.560Z,94723.32
2018-08-18T01:37:32.397Z,94722.45
2018-08-18T01:40:01.569Z,94720.55
2018-08-18T01:42:33.050Z,94722.72
2018-08-18T01:45:01.827Z,94723.97
2018-08-18T01:47:30.744Z,94728.06
2018-08-18T01:50:04.334Z,94735.24
2018-08-18T01:52:34.002Z,94743.21
2018-08-18T01:55:02.701Z,94738.22
2018-08-18T01:57:31.427Z,94734.27
2018-08-18T02:00:05.270Z,94734.23
2018-08-18T02:02:34.101Z,94727.13
2018-08-18T02:05:11.909Z,94732.76
2018-08-18T02:07:41.015Z,94737.20
2018-08-18T02:10:09.759Z,94734.87
2018-08-18T02:12:39.846Z,94727.47
2018-08-18T02:15:08.554Z,94726.67
2018-08-18T02:17:38.354Z,94728.48
2018-08-18T02:20:08.885Z,94726.89
2018-08-18T02:22:37.558Z,94726.37
2018-08-18T02:25:06.725Z,94731.44
2018-08-18T02:27:35.611Z,94725.46
2018-08-18T02:30:15.015Z,94721.52
2018-08-18T02:32:43.788Z,94717.53
2018-08-18T02:35:12.563Z,94732.66
2018-08-18T02:37:41.351Z,94732.16
2018-08-18T02:40:12.422Z,94722.16
2018-08-18T02:42:41.250Z,94726.48
2018-08-18T02:45:10.839Z,94720.91
2018-08-18T02:47:39.754Z,94727.57
2018-08-18T02:50:09.581Z,94724.04
2018-08-18T02:52:38.382Z,94727.84
2018-08-18T02:55:09.199Z,94728.59
2018-08-18T02:57:44.480Z,94735.69
2018-08-18T03:00:48.396Z,94730.58
2018-08-18T03:03:17.591Z,94734.79
2018-08-18T03:05:46.409Z,94738.66
2018-08-18T03:08:15.106Z,94746.48
2018-08-18T03:10:43.856Z,94748.45
2018-08-18T03:13:12.532Z,94749.98
2018-08-18T03:15:57.170Z,94749.37
2018-08-18T03:18:40.158Z,94757.78
2018-08-18T03:21:08.835Z,94757.73
2018-08-18T03:23:37.724Z,94762.84
2018-08-18T03:26:06.522Z,94761.06
2018-08-18T03:28:40.531Z,94766.73
2018-08-18T03:31:09.334Z,94778.19
2018-08-18T03:33:38.079Z,94777.09
2018-08-18T03:36:21.834Z,94778.78
2018-08-18T03:38:50.651Z,94784.06
2018-08-18T03:41:19.442Z,94784.31
2018-08-18T03:43:48.185Z,94786.81
2018-08-18T03:46:16.969Z,94786.09
2018-08-18T03:48:45.771Z,94789.60
2018-08-18T03:51:14.534Z,94794.94
2018-08-18T03:53:43.231Z,94798.37
2018-08-18T03:56:11.985Z,94803.16
2018-08-18T03:58:53.500Z,94806.37
2018-08-18T04:02:00.133Z,94807.48
2018-08-18T04:04:30.918Z,94813.23
2018-08-18T04:07:00.624Z,94804.83
2018-08-18T04:09:31.259Z,94812.98
2018-08-18T04:12:01.489Z,94811.40
2018-08-18T04:14:35.450Z,94803.59
2018-08-18T04:17:04.239Z,94796.25
2018-08-18T04:19:33.056Z,94793.10
2018-08-18T04:22:01.801Z,94798.18
2018-08-18T04:24:36.531Z,94798.30
2018-08-18T04:27:05.281Z,94805.34
2018-08-18T04:29:34.039Z,94801.13
2018-08-18T04:32:02.900Z,94801.69
2018-08-18T04:34:31.602Z,94805.22
2018-08-18T04:37:01.869Z,94799.74
2018-08-18T04:39:30.551Z,94797.98
2018-08-18T04:41:59.333Z,94804.40
2018-08-18T04:44:28.041Z,94792.65
2018-08-18T04:46:56.796Z,94791.41
2018-08-18T04:49:25.503Z,94791.63
2018-08-18T04:51:54.195Z,94787.17
2018-08-18T04:54:22.892Z,94790.54
2018-08-18T04:56:51.710Z,94802.78
2018-08-18T04:59:21.615Z,94813.13
2018-08-18T05:01:50.271Z,94816.20
2018-08-18T05:04:19.010Z,94816.91
2018-08-18T05:06:47.764Z,94813.97
2018-08-18T05:09:16.531Z,94823.34
2018-08-18T05:11:45.357Z,94822.33
2018-08-18T05:14:13.995Z,94823.11
2018-08-18T05:16:42.823Z,94831.06
2018-08-18T05:19:11.652Z,94834.92
2018-08-18T05:21:40.287Z,94835.85
2018-08-18T05:24:22.918Z,94840.16
2018-08-18T05:26:52.616Z,94837.41
2018-08-18T05:29:23.108Z,94847.27
2018-08-18T05:31:51.879Z,94844.61
2018-08-18T05:34:20.645Z,94847.83
2018-08-18T05:36:49.354Z,94848.97
2018-08-18T05:39:18.128Z,94853.74
2018-08-18T05:41:46.886Z,94846.00
2018-08-18T05:44:15.663Z,94840.73
2018-08-18T05:46:44.484Z,94840.46
2018-08-18T05:49:17.092Z,94842.75
2018-08-18T05:51:48.612Z,94852.49
2018-08-18T05:54:21.747Z,94852.27
2018-08-18T05:56:50.515Z,94856.78
2018-08-18T05:59:19.331Z,94860.16
2018-08-18T06:01:48.131Z,94863.45
2018-08-18T06:04:18.480Z,94860.58
2018-08-18T06:06:47.831Z,94858.77
2018-08-18T06:09:17.737Z,94856.64
2018-08-18T06:11:46.628Z,94855.44
2018-08-18T06:14:15.852Z,94866.26
2018-08-18T06:16:45.067Z,94856.66
2018-08-18T06:19:13.912Z,94855.87
2018-08-18T06:21:42.673Z,94852.59
2018-08-18T06:24:11.509Z,94856.22
2018-08-18T06:26:40.292Z,94852.20
2018-08-18T06:29:08.991Z,94849.58
2018-08-18T06:31:52.874Z,94851.08
2018-08-18T06:34:21.612Z,94844.34
2018-08-18T06:36:50.347Z,94839.59
2018-08-18T06:39:19.039Z,94837.98
2018-08-18T06:41:47.852Z,94844.58
2018-08-18T06:44:17.318Z,94848.53
2018-08-18T06:46:48.136Z,94848.12
2018-08-18T06:49:16.895Z,94847.42
2018-08-18T06:51:45.634Z,94848.77
2018-08-18T06:54:14.463Z,94843.48
2018-08-18T06:56:43.237Z,94847.66
2018-08-18T06:59:12.074Z,94847.16
2018-08-18T07:01:40.806Z,94848.70
2018-08-18T07:04:13.919Z,94853.90
2018-08-18T07:06:42.662Z,94847.47
2018-08-18T07:09:11.396Z,94854.89
2018-08-18T07:11:40.115Z,94854.53
2018-08-18T07:14:08.927Z,94851.89
2018-08-18T07:16:37.641Z,94856.58
2018-08-18T07:19:06.402Z,94854.19
2018-08-18T07:21:35.793Z,94858.56
2018-08-18T07:24:04.560Z,94859.77
2018-08-18T07:26:33.272Z,94857.23
2018-08-18T07:29:02.166Z,94858.73
2018-08-18T07:31:30.806Z,94865.25
2018-08-18T07:33:59.535Z,94865.20
2018-08-18T07:36:28.246Z,94866.88
2018-08-18T07:38:57.027Z,94862.59
2018-08-18T07:41:25.747Z,94865.70
2018-08-18T07:43:54.390Z,94866.00
2018-08-18T07:46:23.199Z,94864.64
2018-08-18T07:48:51.959Z,94867.66
2018-08-18T07:51:20.880Z,94867.55
2018-08-18T07:53:49.665Z,94868.52
2018-08-18T07:56:18.367Z,94873.13
2018-08-18T07:58:47.090Z,94875.99
2018-08-18T08:01:15.799Z,94874.27
2018-08-18T08:03:44.485Z,94876.50
2018-08-18T08:06:13.210Z,94876.86
2018-08-18T08:08:48.982Z,94875.16
2018-08-18T08:11:17.720Z,94873.64
2018-08-18T08:13:46.455Z,94878.55
2018-08-18T08:16:15.223Z,94874.33
2018-08-18T08:18:43.980Z,94874.92
2018-08-18T08:21:12.787Z,94880.83
2018-08-18T08:23:41.511Z,94878.23
2018-08-18T08:26:10.346Z,94874.58
2018-08-18T08:28:39.130Z,94874.38
2018-08-18T08:31:07.898Z,94876.81
2018-08-18T08:33:38.414Z,94875.27
2018-08-18T08:36:10.384Z,94874.22
2018-08-18T08:38:52.804Z,94867.32
2018-08-18T08:41:24.493Z,94873.97
2018-08-18T08:43:53.295Z,94865.48
2018-08-18T08:46:22.436Z,94867.64
2018-08-18T08:48:57.571Z,94865.77
2018-08-18T08:51:26.830Z,94863.91
2018-08-18T08:53:57.149Z,94863.10
2018-08-18T08:56:31.005Z,94859.39
2018-08-18T08:58:59.757Z,94859.93
2018-08-18T09:01:28.478Z,94862.08
2018-08-18T09:03:57.235Z,94858.59
2018-08-18T09:06:25.962Z,94859.41
2018-08-18T09:08:58.289Z,94864.77
2018-08-18T09:11:27.590Z,94861.81
2018-08-18T09:14:02.961Z,94867.40
2018-08-18T09:16:32.955Z,94858.58
2018-08-18T09:19:01.614Z,94857.25
2018-08-18T09:21:37.899Z,94858.28
2018-08-18T09:24:06.928Z,94863.06
2018-08-18T09:26:39.751Z,94863.30
2018-08-18T09:29:08.446Z,94855.91
2018-08-18T09:31:37.099Z,94852.96
2018-08-18T09:34:05.815Z,94852.62
2018-08-18T09:36:34.518Z,94846.77
2018-08-18T09:39:03.309Z,94846.98
2018-08-18T09:41:32.032Z,94846.44
2018-08-18T09:44:00.712Z,94846.38
2018-08-18T09:46:29.384Z,94843.95
2018-08-18T09:48:58.127Z,94848.70
2018-08-18T09:51:26.922Z,94840.19
2018-08-18T09:53:55.679Z,94844.69
2018-08-18T09:56:24.469Z,94839.13
2018-08-18T09:58:53.253Z,94844.11
2018-08-18T10:01:22.589Z,94851.54
2018-08-18T10:03:51.283Z,94843.22
2018-08-18T10:06:20.039Z,94849.36
2018-08-18T10:08:48.771Z,94834.97
2018-08-18T10:11:17.524Z,94845.94
2018-08-18T10:13:46.310Z,94835.16
2018-08-18T10:16:15.098Z,94834.98
2018-08-18T10:18:49.616Z,94834.11
2018-08-18T10:21:18.424Z,94833.73
2018-08-18T10:23:47.189Z,94826.72
2018-08-18T10:26:15.927Z,94836.32
2018-08-18T10:28:44.692Z,94826.90
2018-08-18T10:31:13.443Z,94827.55
2018-08-18T10:33:42.142Z,94822.53
2018-08-18T10:36:10.923Z,94822.66
2018-08-18T10:38:39.648Z,94815.34
2018-08-18T10:41:08.303Z,94817.46
2018-08-18T10:43:37.227Z,94809.50
2018-08-18T10:46:06.057Z,94811.52
2018-08-18T10:48:34.737Z,94814.62
2018-08-18T10:51:25.447Z,94810.80
2018-08-18T10:53:54.535Z,94808.66
2018-08-18T10:56:23.836Z,94807.72
2018-08-18T10:59:08.831Z,94812.00
2018-08-18T11:01:39.014Z,94806.36
2018-08-18T11:04:07.700Z,94805.82
2018-08-18T11:06:36.436Z,94813.09
2018-08-18T11:09:06.120Z,94809.77
2018-08-18T11:11:34.844Z,94811.25
2018-08-18T11:14:03.566Z,94813.20
2018-08-18T11:16:32.347Z,94818.64
2018-08-18T11:19:01.027Z,94813.19
2018-08-18T11:21:33.832Z,94810.06
2018-08-18T11:24:08.651Z,94802.81
2018-08-18T11:26:39.243Z,94799.41
2018-08-18T11:29:15.507Z,94796.25
2018-08-18T11:31:44.764Z,94797.59
2018-08-18T11:34:13.498Z,94793.78
2018-08-18T11:37:01.062Z,94797.59
2018-08-18T11:39:31.092Z,94792.64
2018-08-18T11:42:00.324Z,94798.41
2018-08-18T11:44:29.110Z,94793.44
2018-08-18T11:46:57.800Z,94794.36
2018-08-18T11:49:26.473Z,94789.05
2018-08-18T11:51:56.141Z,94786.66
2018-08-18T11:54:24.959Z,94782.59
2018-08-18T11:56:54.183Z,94786.28
2018-08-18T11:59:22.893Z,94778.22
2018-08-18T12:01:53.424Z,94778.03
2018-08-18T12:04:22.847Z,94780.30
2018-08-18T12:06:59.392Z,94774.06
2018-08-18T12:09:28.482Z,94767.68
2018-08-18T12:11:57.244Z,94772.37
2018-08-18T12:14:25.942Z,94764.27
2018-08-18T12:16:54.626Z,94759.45
2018-08-18T12:19:23.363Z,94757.14
2018-08-18T12:21:52.181Z,94753.80
2018-08-18T12:24:21.711Z,94752.23
2018-08-18T12:27:01.808Z,94755.64
2018-08-18T12:29:31.106Z,94757.14
2018-08-18T12:31:59.962Z,94757.55
2018-08-18T12:34:28.792Z,94753.11
2018-08-18T12:36:57.713Z,94751.50
2018-08-18T12:39:26.386Z,94740.16
2018-08-18T12:41:55.127Z,94743.74
2018-08-18T12:44:28.914Z,94743.61
2018-08-18T12:46:57.664Z,94745.83
2018-08-18T12:49:26.373Z,94744.03
2018-08-18T12:51:55.129Z,94742.72
2018-08-18T12:54:23.783Z,94736.41
2018-08-18T12:56:52.540Z,94742.39
2018-08-18T12:59:21.292Z,94739.75
2018-08-18T13:01:51.099Z,94742.63
2018-08-18T13:04:21.119Z,94740.53
2018-08-18T13:06:51.314Z,94736.63
2018-08-18T13:09:21.381Z,94736.50
2018-08-18T13:11:51.416Z,94737.19
2018-08-18T13:14:24.370Z,94724.95
2018-08-18T13:16:53.110Z,94725.58
2018-08-18T13:19:23.980Z,94725.33
2018-08-18T13:21:52.703Z,94722.99
2018-08-18T13:24:21.417Z,94727.30
2018-08-18T13:26:50.151Z,94717.95
2018-08-18T13:29:18.938Z,94718.27
2018-08-18T13:31:47.690Z,94715.66
2018-08-18T13:34:17.541Z,94721.66
2018-08-18T13:36:47.024Z,94714.17
2018-08-18T13:39:18.852Z,94717.02
2018-08-18T13:41:48.449Z,94713.58
2018-08-18T13:44:23.796Z,94713.86
2018-08-18T13:46:52.667Z,94717.27
2018-08-18T13:49:24.461Z,94711.13
2018-08-18T13:51:53.327Z,94709.59
2018-08-18T13:54:22.122Z,94704.03
2018-08-18T13:56:50.899Z,94702.28
2018-08-18T13:59:34.588Z,94708.62
2018-08-18T14:02:03.312Z,94709.91
2018-08-18T14:04:31.989Z,94701.08
2018-08-18T14:07:00.646Z,94700.76
2018-08-18T14:09:29.411Z,94695.44
2018-08-18T14:12:03.619Z,94705.52
2018-08-18T14:14:32.322Z,94697.55
2018-08-18T14:17:01.050Z,94707.95
2018-08-18T14:19:29.780Z,94702.77
2018-08-18T14:22:04.254Z,94702.05
2018-08-18T14:24:34.748Z,94696.70
2018-08-18T14:27:04.808Z,94703.92
2018-08-18T14:29:34.315Z,94705.39
2018-08-18T14:32:06.275Z,94703.25
2018-08-18T14:34:34.985Z,94711.17
2018-08-18T14:37:09.531Z,94703.91
2018-08-18T14:39:39.650Z,94709.64
2018-08-18T14:42:08.843Z,94707.95
2018-08-18T14:44:38.254Z,94701.16
2018-08-18T14:47:07.295Z,94708.75
2018-08-18T14:49:36.103Z,94698.03
2018-08-18T14:52:04.955Z,94699.37
2018-08-18T14:55:36.634Z,94700.59
2018-08-18T14:58:05.350Z,94706.26
2018-08-18T15:00:34.088Z,94710.82
2018-08-18T15:03:02.859Z,94698.45
2018-08-18T15:05:31.536Z,94700.98
2018-08-18T15:08:01.113Z,94699.33
2018-08-18T15:10:41.591Z,94698.39
2018-08-18T15:13:11.064Z,94701.28
2018-08-18T15:15:39.854Z,94698.16
2018-08-18T15:18:12.631Z,94698.97
2018-08-18T15:20:41.961Z,94697.75
2018-08-18T15:23:11.423Z,94699.78
2018-08-18T15:25:41.078Z,94687.19
2018-08-18T15:28:14.920Z,94686.62
2018-08-18T15:30:47.137Z,94692.77
2018-08-18T15:33:16.978Z,94696.93
2018-08-18T15:35:45.714Z,94703.36
2018-08-18T15:38:14.577Z,94692.73
2018-08-18T15:40:43.684Z,94699.55
2018-08-18T15:43:12.420Z,94697.17
2018-08-18T15:45:56.917Z,94692.66
2018-08-18T15:48:25.959Z,94702.24
2018-08-18T15:50:54.735Z,94705.52
2018-08-18T15:54:00.449Z,94716.02
2018-08-18T15:56:30.223Z,94712.12
2018-08-18T15:58:59.891Z,94710.13
2018-08-18T16:01:29.777Z,94714.42
2018-08-18T16:04:01.753Z,94721.68
2018-08-18T16:06:30.560Z,94722.98
2018-08-18T16:08:59.302Z,94725.69
2018-08-18T16:11:28.002Z,94727.34
2018-08-18T16:13:56.727Z,94728.94
2018-08-18T16:16:25.503Z,94724.17
2018-08-18T16:19:02.230Z,94731.70
2018-08-18T16:21:33.308Z,94725.14
2018-08-18T16:24:02.544Z,94728.17
2018-08-18T16:26:31.307Z,94731.80
2018-08-18T16:29:00.232Z,94738.81
2018-08-18T16:31:28.962Z,94735.80
2018-08-18T16:33:57.820Z,94743.24
2018-08-18T16:36:32.688Z,94744.41
2018-08-18T16:39:01.795Z,94749.19
2018-08-18T16:41:30.531Z,94751.08
2018-08-18T16:43:59.235Z,94759.86
2018-08-18T16:46:31.023Z,94762.63
2018-08-18T16:48:59.863Z,94759.75
2018-08-18T16:51:28.558Z,94762.77
2018-08-18T16:54:11.226Z,94766.03
2018-08-18T16:56:39.922Z,94758.81
2018-08-18T16:59:08.630Z,94760.58
2018-08-18T17:01:37.336Z,94769.20
2018-08-18T17:04:06.066Z,94766.68
2018-08-18T17:06:34.780Z,94775.21
2018-08-18T17:09:04.027Z,94776.19
2018-08-18T17:11:32.722Z,94783.04
2018-08-18T17:14:01.505Z,94789.09
2018-08-18T17:16:30.252Z,94787.94
2018-08-18T17:18:58.987Z,94785.67
2018-08-18T17:21:27.669Z,94789.92
2018-08-18T17:23:56.330Z,94790.35
2018-08-18T17:26:25.205Z,94789.95
2018-08-18T17:28:54.539Z,94788.19
2018-08-18T17:31:23.332Z,94793.03
2018-08-18T17:33:51.964Z,94790.47
2018-08-18T17:36:20.641Z,94794.48
2018-08-18T17:38:49.345Z,94793.22
2018-08-18T17:41:18.064Z,94797.53
2018-08-18T17:43:46.799Z,94799.41
2018-08-18T17:46:15.576Z,94802.13
2018-08-18T17:48:49.344Z,94799.78
2018-08-18T17:51:18.059Z,94802.45
2018-08-18T17:53:53.673Z,94809.20
2018-08-18T17:56:22.370Z,94814.81
2018-08-18T17:58:51.147Z,94821.77
2018-08-18T18:01:19.882Z,94823.89
2018-08-18T18:03:48.611Z,94827.39
2018-08-18T18:06:17.379Z,94828.19
2018-08-18T18:08:46.103Z,94827.41
2018-08-18T18:11:14.813Z,94835.15
2018-08-18T18:13:43.498Z,94837.52
2018-08-18T18:16:23.312Z,94842.06
2018-08-18T18:18:52.200Z,94836.45
2018-08-18T18:21:21.032Z,94839.13
2018-08-18T18:23:49.705Z,94838.84
2018-08-18T18:26:18.421Z,94842.05
2018-08-18T18:28:47.125Z,94849.26
2018-08-18T18:31:15.903Z,94846.52
2018-08-18T18:33:48.389Z,94849.18
2018-08-18T18:36:17.169Z,94847.80
2018-08-18T18:38:54.341Z,94848.64
2018-08-18T18:41:23.160Z,94847.03
2018-08-18T18:43:59.546Z,94846.21
2018-08-18T18:46:28.309Z,94845.23
2018-08-18T18:48:57.208Z,94848.35
2018-08-18T18:51:26.014Z,94851.34
2018-08-18T18:53:57.047Z,94849.37
2018-08-18T18:56:25.766Z,94859.55
2018-08-18T18:58:54.667Z,94858.00
2018-08-18T19:01:23.405Z,94858.23
2018-08-18T19:05:19.846Z,94851.86
2018-08-18T19:07:52.926Z,94847.08
2018-08-18T19:10:23.467Z,94852.12
2018-08-18T19:12:53.475Z,94852.64
2018-08-18T19:15:22.769Z,94855.31
2018-08-18T19:17:51.483Z,94855.29
2018-08-18T19:20:25.101Z,94856.04
2018-08-18T19:23:26.490Z,94856.77
2018-08-18T19:25:55.168Z,94851.97
2018-08-18T19:28:23.883Z,94852.23
2018-08-18T19:30:52.534Z,94861.02
2018-08-18T19:33:21.303Z,94858.94
2018-08-18T19:35:51.190Z,94863.48
2018-08-18T19:38:20.923Z,94858.66
2018-08-18T19:40:52.686Z,94855.75
2018-08-18T19:43:24.522Z,94864.52
2018-08-18T19:45:54.327Z,94862.34
2018-08-18T19:48:24.334Z,94871.60
2018-08-18T19:50:58.389Z,94873.16
2018-08-18T19:53:31.040Z,94872.09
2018-08-18T19:56:00.582Z,94873.87
2018-08-18T19:58:29.809Z,94866.92
2018-08-18T20:00:58.585Z,94873.87
2018-08-18T20:03:27.599Z,94869.11
2018-08-18T20:05:56.256Z,94868.06
2018-08-18T20:08:26.216Z,94871.50
2018-08-18T20:10:55.590Z,94874.14
2018-08-18T20:13:25.613Z,94876.03
2018-08-18T20:15:57.486Z,94876.28
2018-08-18T20:18:26.250Z,94876.03
2018-08-18T20:20:57.279Z,94879.19
2018-08-18T20:23:25.987Z,94880.75
2018-08-18T20:25:54.720Z,94880.52
2018-08-18T20:28:23.474Z,94887.95
2018-08-18T20:30:52.223Z,94885.30
2018-08-18T20:33:20.993Z,94890.59
2018-08-18T20:35:49.765Z,94887.57
2018-08-18T20:38:18.466Z,94892.33
2018-08-18T20:40:47.214Z,94889.28
2018-08-18T20:43:15.909Z,94892.73
2018-08-18T20:45:48.520Z,94894.63
2018-08-18T20:48:19.781Z,94889.55
2018-08-18T20:50:48.479Z,94898.28
2018-08-18T20:53:17.741Z,94901.11
2018-08-18T20:55:56.307Z,94906.03
2018-08-18T20:58:25.121Z,94904.88
2018-08-18T21:00:53.784Z,94907.98
2018-08-18T21:03:23.928Z,94910.74
2018-08-18T21:05:52.657Z,94911.53
2018-08-18T21:08:21.379Z,94919.69
2018-08-18T21:10:50.279Z,94912.99
2018-08-18T21:13:19.118Z,94917.95
2018-08-18T21:15:47.852Z,94914.76
2018-08-18T21:18:19.526Z,94911.06
2018-08-18T21:20:48.951Z,94918.03
2018-08-18T21:23:18.550Z,94915.23
2018-08-18T21:25:50.804Z,94910.90
2018-08-18T21:28:20.395Z,94913.20
2018-08-18T21:30:49.535Z,94918.51
2018-08-18T21:33:18.273Z,94913.48
2018-08-18T21:35:46.993Z,94915.92
2018-08-18T21:38:15.709Z,94919.33
2018-08-18T21:40:44.432Z,94920.44
2018-08-18T21:43:24.335Z,94917.47
2018-08-18T21:45:53.894Z,94911.38
2018-08-18T21:48:32.670Z,94918.51
2018-08-18T21:51:02.224Z,94910.98
2018-08-18T21:53:30.929Z,94917.11
2018-08-18T21:56:00.997Z,94916.09
2018-08-18T21:58:29.743Z,94919.45
2018-08-18T22:01:03.786Z,94923.42
2018-08-18T22:03:32.616Z,94928.19
2018-08-18T22:06:01.539Z,94930.05
2018-08-18T22:08:30.232Z,94931.77
2018-08-18T22:10:58.983Z,94933.74
2018-08-18T22:13:27.750Z,94929.98
2018-08-18T22:15:56.527Z,94930.52
2018-08-18T22:18:25.248Z,94934.46
2018-08-18T22:20:53.916Z,94938.04
2018-08-18T22:23:22.583Z,94932.30
2018-08-18T22:25:51.302Z,94925.63
2018-08-18T22:28:21.262Z,94917.59
2018-08-18T22:30:50.034Z,94922.75
2018-08-18T22:33:18.951Z,94924.34
2018-08-18T22:35:51.707Z,94923.51
2018-08-18T22:38:20.414Z,94922.93
2018-08-18T22:40:49.102Z,94920.98
2018-08-18T22:43:22.406Z,94923.14
2018-08-18T22:45:51.173Z,94924.95
2018-08-18T22:48:19.889Z,94926.58
2018-08-18T22:50:48.596Z,94926.91
2018-08-18T22:53:17.328Z,94925.20
2018-08-18T22:55:46.043Z,94923.58
2018-08-18T22:58:14.695Z,94919.11
2018-08-18T23:00:45.311Z,94918.08
2018-08-18T23:03:14.306Z,94917.50
2018-08-18T23:05:42.998Z,94911.84
2018-08-18T23:08:11.759Z,94911.05
2018-08-18T23:10:40.548Z,94915.98
2018-08-18T23:13:11.021Z,94915.08
2018-08-18T23:15:39.748Z,94910.60
2018-08-18T23:18:08.553Z,94921.77
2018-08-18T23:20:37.436Z,94925.64
2018-08-18T23:23:06.320Z,94923.88
2018-08-18T23:25:35.986Z,94925.53
2018-08-18T23:29:34.090Z,94922.46
2018-08-18T23:32:16.585Z,94923.00
2018-08-18T23:34:45.326Z,94922.52
2018-08-18T23:37:18.121Z,94923.59
2018-08-18T23:39:47.031Z,94925.27
2018-08-18T23:42:20.823Z,94930.55
2018-08-18T23:44:49.534Z,94929.47
2018-08-18T23:47:18.596Z,94930.95
2018-08-18T23:49:47.437Z,94927.48
2018-08-18T23:52:16.195Z,94923.00
2018-08-18T23:54:45.006Z,94921.75
2018-08-18T23:57:16.080Z,94918.31
2018-08-18T23:59:45.296Z,94919.11
